Boka — J8B4647 — position and weather

sailwx.info

Track history (hours):
 
Tides and Currents Weather Stations Pressure Air Temp Water Temp Dewpoint Dewpoint Depression Visibility Wind Speed Wind Dir Waves Ship Positions

Boka

Last reported at 2017-Dec-10 14:20 UTC. Time now 2017-Dec-12 12:34 UTC.
Position N 38°14' W 010°02'.

Length 177 m; draft 9.6 m.

Type: Ship. MMSI: 376207000.

Date/timePositionNaut miles runAvg speedWind from/ knotsBaromVisibWave heightAir tempDewpointWater temp
2017-Dec-10 14:20N 38°14' W 010°02'411.7
2017-Dec-10 14:00N 38°18' W 010°02'611.8
2017-Dec-10 13:30N 38°23' W 010°03'611.9
2017-Dec-10 12:59N 38°30' W 010°04'611.8
2017-Dec-10 12:30N 38°35' W 010°05'611.9
2017-Dec-10 12:00N 38°41' W 010°06'611.9
2017-Dec-10 11:30N 38°47' W 010°06'612.3
2017-Dec-10 11:00N 38°53' W 010°06'612.6
2017-Dec-10 10:30N 38°60' W 010°06'612.5
2017-Dec-10 10:00N 39°06' W 010°06'612.3
2017-Dec-10 09:30N 39°12' W 010°06'611.7
2017-Dec-10 09:00N 39°18' W 010°06'  
2017-Dec-07 16:45N 49°46' W 003°26'310.4
2017-Dec-07 16:30N 49°47' W 003°23'511.0
2017-Dec-07 16:00N 49°50' W 003°16'611.8
2017-Dec-07 15:30N 49°53' W 003°08'611.7
2017-Dec-07 15:00N 49°56' W 002°60'611.1
2017-Dec-07 14:31N 49°58' W 002°52'510.2
2017-Dec-07 13:59N 49°59' W 002°43'5 9.6
2017-Dec-07 13:26N 50°01' W 002°36'4 8.4
2017-Dec-07 13:00N 50°02' W 002°30'59 7.3
2017-Dec-07 04:55N 49°47' W 001°02'614.1
2017-Dec-07 04:30N 49°44' W 000°54'713.7
2017-Dec-07 04:00N 49°41' W 000°45'713.6
2017-Dec-07 03:30N 49°38' W 000°35'713.6
2017-Dec-07 03:00N 49°35' W 000°26'713.1
2017-Dec-07 02:30N 49°32' W 000°17'612.6
2017-Dec-07 02:00N 49°30' W 000°08'611.1
2017-Dec-07 01:30N 49°28' E 000°00'510.5
2017-Dec-07 01:00N 49°26' E 000°08'510.5
2017-Dec-07 00:30N 49°26' E 000°16'5 9.5
2017-Dec-07 00:00N 49°27' E 000°23'4 8.5
2017-Dec-06 23:30N 49°29' E 000°29'3 5.5
2017-Dec-06 23:00N 49°28' E 000°33'3 5.5
2017-Dec-06 22:30N 49°26' E 000°35'2 4.4
2017-Dec-06 22:00N 49°27' E 000°39'4 8.4
2017-Dec-06 21:30N 49°31' E 000°41'4 7.7
2017-Dec-06 21:00N 49°30' E 000°46'  
2017-Dec-04 10:29N 49°26' E 001°03'0 0.0
2017-Dec-04 09:59N 49°26' E 001°03'0 0.0
2017-Dec-04 09:29N 49°26' E 001°03'0 0.0
2017-Dec-04 09:00N 49°26' E 001°03'0 0.0
2017-Dec-04 08:29N 49°26' E 001°03'0 0.0
2017-Dec-04 07:59N 49°26' E 001°03'0 0.0
2017-Dec-04 07:29N 49°26' E 001°03'0 0.0
2017-Dec-04 06:59N 49°26' E 001°03'0 0.0
2017-Dec-04 06:29N 49°26' E 001°03'0 0.0
2017-Dec-04 05:59N 49°26' E 001°03'0 0.0
2017-Dec-04 05:29N 49°26' E 001°03'0 0.0
2017-Dec-04 04:59N 49°26' E 001°03'0 0.0
2017-Dec-04 04:29N 49°26' E 001°03'0 0.0
2017-Dec-04 03:59N 49°26' E 001°03'0 0.0
2017-Dec-04 03:29N 49°26' E 001°03'0 0.0
2017-Dec-04 02:59N 49°26' E 001°03'0 0.0
2017-Dec-04 02:29N 49°26' E 001°03'0 0.0
2017-Dec-04 01:59N 49°26' E 001°03'0 0.0
2017-Dec-04 01:29N 49°26' E 001°03'0 0.0
2017-Dec-04 00:59N 49°26' E 001°03'0 0.0
2017-Dec-04 00:29N 49°26' E 001°03'0 0.0
2017-Dec-03 23:56N 49°26' E 001°03'1 1.3
2017-Dec-03 23:30N 49°26' E 001°02'3 5.7
2017-Dec-03 23:00N 49°24' E 001°01'4 7.6
2017-Dec-03 22:30N 49°21' E 000°56'611.8
2017-Dec-03 22:01N 49°27' E 000°56'3 6.1
2017-Dec-03 21:31N 49°27' E 000°51'3 5.0
2017-Dec-03 21:00N 49°25' E 000°48'510.2
2017-Dec-03 20:30N 49°30' E 000°46'4 8.8
2017-Dec-03 20:01N 49°29' E 000°40'5 9.5
2017-Dec-03 19:30N 49°27' E 000°33'510.3
2017-Dec-03 19:00N 49°27' E 000°25'714.4
2017-Dec-03 18:31N 49°26' E 000°14'713.8
2017-Dec-03 18:01N 49°27' E 000°04'611.4
2017-Dec-03 17:31N 49°29' W 000°04'3 6.3
2017-Dec-03 17:01N 49°29' W 000°09'0 0.2
2017-Dec-03 16:31N 49°28' W 000°09'0 0.0
2017-Dec-03 16:01N 49°28' W 000°09'0 0.0
2017-Dec-03 15:31N 49°28' W 000°09'0 0.0
2017-Dec-03 15:01N 49°28' W 000°09'0 0.0
2017-Dec-03 14:31N 49°28' W 000°09'0 0.3
2017-Dec-03 14:00N 49°28' W 000°09'3 5.3
2017-Dec-03 13:30N 49°30' W 000°13'611.2
2017-Dec-03 13:00N 49°33' W 000°20'611.7
2017-Dec-03 12:30N 49°35' W 000°28'611.7
2017-Dec-03 12:00N 49°38' W 000°37'612.0
2017-Dec-03 11:30N 49°41' W 000°45'612.1
2017-Dec-03 11:01N 49°43' W 000°53'612.8
2017-Dec-03 10:31N 49°46' W 001°02'713.8
2017-Dec-03 10:00N 49°48' W 001°12'714.4
2017-Dec-03 09:30N 49°50' W 001°23'714.8
2017-Dec-03 09:00N 49°51' W 001°34'816.2
2017-Dec-03 08:31N 49°51' W 001°47'816.9
2017-Dec-03 08:00N 49°52' W 001°60'2216.4
2017-Dec-03 06:40N 49°50' W 002°34'315.9
2017-Dec-03 06:27N 49°49' W 002°39'715.5
2017-Dec-03 06:00N 49°48' W 002°50'1114.9
2017-Dec-03 05:17N 49°43' W 003°05'2714.6
2017-Dec-03 03:25N 49°29' W 003°41'814.4
2017-Dec-03 02:51N 49°25' W 003°52'2214.0
2017-Dec-03 01:17N 49°14' W 004°21'813.5
2017-Dec-03 00:43N 49°11' W 004°31'1113.2
2017-Dec-02 23:52N 49°05' W 004°46'512.6
2017-Dec-02 23:30N 49°03' W 004°52'612.1
2017-Dec-02 23:00N 49°00' W 005°00'611.9
2017-Dec-02 22:30N 48°57' W 005°08'611.5
2017-Dec-02 22:00N 48°54' W 005°16'611.1
2017-Dec-02 21:30N 48°52' W 005°23'610.8
2017-Dec-02 21:00N 48°49' W 005°30'510.7
2017-Dec-02 20:30N 48°46' W 005°37'510.5
2017-Dec-02 20:00N 48°42' W 005°42'610.5
2017-Dec-02 19:29N 48°37' W 005°46'510.5
2017-Dec-02 19:00N 48°33' W 005°49'610.8
2017-Dec-02 18:30N 48°28' W 005°53'56211.2
2017-Nov-30 16:07N 39°32' W 009°51'111.4
2017-Nov-30 16:00N 39°30' W 009°51'611.6
2017-Nov-30 15:29N 39°24' W 009°50'611.9
2017-Nov-30 15:01N 39°19' W 009°50'611.8
2017-Nov-30 14:30N 39°13' W 009°50'  
Track history (hours):
 
Tides and Currents Weather Stations Pressure Air Temp Water Temp Dewpoint Dewpoint Depression Visibility Wind Speed Wind Dir Waves Ship Positions

Boka

Last reported at 2017-Dec-10 14:20 UTC. Time now 2017-Dec-12 12:34 UTC.
Position N 38°14' W 010°02'.

Length 177 m; draft 9.6 m.

Type: Ship. MMSI: 376207000.

Date/timePositionNaut miles runAvg speedWind from/ knotsBaromVisibWave heightAir tempDewpointWater temp
2017-Dec-10 14:20N 38°14' W 010°02'411.7
2017-Dec-10 14:00N 38°18' W 010°02'611.8
2017-Dec-10 13:30N 38°23' W 010°03'611.9
2017-Dec-10 12:59N 38°30' W 010°04'611.8
2017-Dec-10 12:30N 38°35' W 010°05'611.9
2017-Dec-10 12:00N 38°41' W 010°06'611.9
2017-Dec-10 11:30N 38°47' W 010°06'612.3
2017-Dec-10 11:00N 38°53' W 010°06'612.6
2017-Dec-10 10:30N 38°60' W 010°06'612.5
2017-Dec-10 10:00N 39°06' W 010°06'612.3
2017-Dec-10 09:30N 39°12' W 010°06'611.7
2017-Dec-10 09:00N 39°18' W 010°06'  
2017-Dec-07 16:45N 49°46' W 003°26'310.4
2017-Dec-07 16:30N 49°47' W 003°23'511.0
2017-Dec-07 16:00N 49°50' W 003°16'611.8
2017-Dec-07 15:30N 49°53' W 003°08'611.7
2017-Dec-07 15:00N 49°56' W 002°60'611.1
2017-Dec-07 14:31N 49°58' W 002°52'510.2
2017-Dec-07 13:59N 49°59' W 002°43'5 9.6
2017-Dec-07 13:26N 50°01' W 002°36'4 8.4
2017-Dec-07 13:00N 50°02' W 002°30'59 7.3
2017-Dec-07 04:55N 49°47' W 001°02'614.1
2017-Dec-07 04:30N 49°44' W 000°54'713.7
2017-Dec-07 04:00N 49°41' W 000°45'713.6
2017-Dec-07 03:30N 49°38' W 000°35'713.6
2017-Dec-07 03:00N 49°35' W 000°26'713.1
2017-Dec-07 02:30N 49°32' W 000°17'612.6
2017-Dec-07 02:00N 49°30' W 000°08'611.1
2017-Dec-07 01:30N 49°28' E 000°00'510.5
2017-Dec-07 01:00N 49°26' E 000°08'510.5
2017-Dec-07 00:30N 49°26' E 000°16'5 9.5
2017-Dec-07 00:00N 49°27' E 000°23'4 8.5
2017-Dec-06 23:30N 49°29' E 000°29'3 5.5
2017-Dec-06 23:00N 49°28' E 000°33'3 5.5
2017-Dec-06 22:30N 49°26' E 000°35'2 4.4
2017-Dec-06 22:00N 49°27' E 000°39'4 8.4
2017-Dec-06 21:30N 49°31' E 000°41'4 7.7
2017-Dec-06 21:00N 49°30' E 000°46'  
2017-Dec-04 10:29N 49°26' E 001°03'0 0.0
2017-Dec-04 09:59N 49°26' E 001°03'0 0.0
2017-Dec-04 09:29N 49°26' E 001°03'0 0.0
2017-Dec-04 09:00N 49°26' E 001°03'0 0.0
2017-Dec-04 08:29N 49°26' E 001°03'0 0.0
2017-Dec-04 07:59N 49°26' E 001°03'0 0.0
2017-Dec-04 07:29N 49°26' E 001°03'0 0.0
2017-Dec-04 06:59N 49°26' E 001°03'0 0.0
2017-Dec-04 06:29N 49°26' E 001°03'0 0.0
2017-Dec-04 05:59N 49°26' E 001°03'0 0.0
2017-Dec-04 05:29N 49°26' E 001°03'0 0.0
2017-Dec-04 04:59N 49°26' E 001°03'0 0.0
2017-Dec-04 04:29N 49°26' E 001°03'0 0.0
2017-Dec-04 03:59N 49°26' E 001°03'0 0.0
2017-Dec-04 03:29N 49°26' E 001°03'0 0.0
2017-Dec-04 02:59N 49°26' E 001°03'0 0.0
2017-Dec-04 02:29N 49°26' E 001°03'0 0.0
2017-Dec-04 01:59N 49°26' E 001°03'0 0.0
2017-Dec-04 01:29N 49°26' E 001°03'0 0.0
2017-Dec-04 00:59N 49°26' E 001°03'0 0.0
2017-Dec-04 00:29N 49°26' E 001°03'0 0.0
2017-Dec-03 23:56N 49°26' E 001°03'1 1.3
2017-Dec-03 23:30N 49°26' E 001°02'3 5.7
2017-Dec-03 23:00N 49°24' E 001°01'4 7.6
2017-Dec-03 22:30N 49°21' E 000°56'611.8
2017-Dec-03 22:01N 49°27' E 000°56'3 6.1
2017-Dec-03 21:31N 49°27' E 000°51'3 5.0
2017-Dec-03 21:00N 49°25' E 000°48'510.2
2017-Dec-03 20:30N 49°30' E 000°46'4 8.8
2017-Dec-03 20:01N 49°29' E 000°40'5 9.5
2017-Dec-03 19:30N 49°27' E 000°33'510.3
2017-Dec-03 19:00N 49°27' E 000°25'714.4
2017-Dec-03 18:31N 49°26' E 000°14'713.8
2017-Dec-03 18:01N 49°27' E 000°04'611.4
2017-Dec-03 17:31N 49°29' W 000°04'3 6.3
2017-Dec-03 17:01N 49°29' W 000°09'0 0.2
2017-Dec-03 16:31N 49°28' W 000°09'0 0.0
2017-Dec-03 16:01N 49°28' W 000°09'0 0.0
2017-Dec-03 15:31N 49°28' W 000°09'0 0.0
2017-Dec-03 15:01N 49°28' W 000°09'0 0.0
2017-Dec-03 14:31N 49°28' W 000°09'0 0.3
2017-Dec-03 14:00N 49°28' W 000°09'3 5.3
2017-Dec-03 13:30N 49°30' W 000°13'611.2
2017-Dec-03 13:00N 49°33' W 000°20'611.7
2017-Dec-03 12:30N 49°35' W 000°28'611.7
2017-Dec-03 12:00N 49°38' W 000°37'612.0
2017-Dec-03 11:30N 49°41' W 000°45'612.1
2017-Dec-03 11:01N 49°43' W 000°53'612.8
2017-Dec-03 10:31N 49°46' W 001°02'713.8
2017-Dec-03 10:00N 49°48' W 001°12'714.4
2017-Dec-03 09:30N 49°50' W 001°23'714.8
2017-Dec-03 09:00N 49°51' W 001°34'816.2
2017-Dec-03 08:31N 49°51' W 001°47'816.9
2017-Dec-03 08:00N 49°52' W 001°60'2216.4
2017-Dec-03 06:40N 49°50' W 002°34'315.9
2017-Dec-03 06:27N 49°49' W 002°39'715.5
2017-Dec-03 06:00N 49°48' W 002°50'1114.9
2017-Dec-03 05:17N 49°43' W 003°05'2714.6
2017-Dec-03 03:25N 49°29' W 003°41'814.4
2017-Dec-03 02:51N 49°25' W 003°52'2214.0
2017-Dec-03 01:17N 49°14' W 004°21'813.5
2017-Dec-03 00:43N 49°11' W 004°31'1113.2
2017-Dec-02 23:52N 49°05' W 004°46'512.6
2017-Dec-02 23:30N 49°03' W 004°52'612.1
2017-Dec-02 23:00N 49°00' W 005°00'611.9
2017-Dec-02 22:30N 48°57' W 005°08'611.5
2017-Dec-02 22:00N 48°54' W 005°16'611.1
2017-Dec-02 21:30N 48°52' W 005°23'610.8
2017-Dec-02 21:00N 48°49' W 005°30'510.7
2017-Dec-02 20:30N 48°46' W 005°37'510.5
2017-Dec-02 20:00N 48°42' W 005°42'610.5
2017-Dec-02 19:29N 48°37' W 005°46'510.5
2017-Dec-02 19:00N 48°33' W 005°49'610.8
2017-Dec-02 18:30N 48°28' W 005°53'56211.2
2017-Nov-30 16:07N 39°32' W 009°51'111.4
2017-Nov-30 16:00N 39°30' W 009°51'611.6
2017-Nov-30 15:29N 39°24' W 009°50'611.9
2017-Nov-30 15:01N 39°19' W 009°50'611.8
2017-Nov-30 14:30N 39°13' W 009°50'  

Dump ship's entire track history